Britt, Canada
Current Conditions -  °F | °C
As of 5:00 PM on Sunday 25 Jan 2015 (Local Time) from CYSB Reporting Station
Few Clouds Few Clouds  
Wind Chill:   Ceiling: Unl
Heat Index:   Visibility: 20mi
Dew Point: -9°   Wind: 2mph
Humidity: 48%   Direction: 10°N
Pressure: 30.01"   Gusts: NA
Location:  45.78°N, 80.53°W
Report Text: CYSB 252200Z 01002KT 20SM FEW200 M14/M23 A3001 RMK CI2 SLP198
Loading
Personal Weather Stations






























Interactive Weather Map New forecast layout! Learn more

10-Day Weather Forecast

Advertisements
Track Severe Weather on mobile